sensor_id;sensor_type;location;lat;lon;timestamp;temperature;humidity
17619;DHT22;8928;51.678;6.074;2023-02-26T00:02:28;-2.00;99.90
17619;DHT22;8928;51.678;6.074;2023-02-26T00:05:16;-2.00;99.90
17619;DHT22;8928;51.678;6.074;2023-02-26T00:08:03;-2.00;99.90
17619;DHT22;8928;51.678;6.074;2023-02-26T00:10:52;-1.90;99.90
17619;DHT22;8928;51.678;6.074;2023-02-26T00:13:41;-1.90;99.90
17619;DHT22;8928;51.678;6.074;2023-02-26T00:16:30;-2.00;99.90
17619;DHT22;8928;51.678;6.074;2023-02-26T00:19:18;-2.00;99.90
17619;DHT22;8928;51.678;6.074;2023-02-26T00:22:05;-2.10;99.90
17619;DHT22;8928;51.678;6.074;2023-02-26T00:24:52;-2.10;99.90
17619;DHT22;8928;51.678;6.074;2023-02-26T00:27:41;-2.10;99.90
17619;DHT22;8928;51.678;6.074;2023-02-26T00:30:29;-2.10;99.90
17619;DHT22;8928;51.678;6.074;2023-02-26T00:33:16;-2.00;99.90
17619;DHT22;8928;51.678;6.074;2023-02-26T00:36:14;-1.90;99.90
17619;DHT22;8928;51.678;6.074;2023-02-26T00:39:08;-1.70;99.90
17619;DHT22;8928;51.678;6.074;2023-02-26T00:42:01;-1.60;99.90
17619;DHT22;8928;51.678;6.074;2023-02-26T00:44:50;-1.40;99.90
17619;DHT22;8928;51.678;6.074;2023-02-26T00:47:42;-1.20;99.90
17619;DHT22;8928;51.678;6.074;2023-02-26T00:50:31;-1.10;99.90
17619;DHT22;8928;51.678;6.074;2023-02-26T00:53:23;-1.00;99.90
17619;DHT22;8928;51.678;6.074;2023-02-26T00:56:13;-0.90;99.90
17619;DHT22;8928;51.678;6.074;2023-02-26T00:59:00;-0.80;99.90
17619;DHT22;8928;51.678;6.074;2023-02-26T01:01:48;-0.70;99.90
17619;DHT22;8928;51.678;6.074;2023-02-26T01:04:36;-0.70;99.90
17619;DHT22;8928;51.678;6.074;2023-02-26T01:07:25;-0.70;99.90
17619;DHT22;8928;51.678;6.074;2023-02-26T01:10:14;-0.70;99.90
17619;DHT22;8928;51.678;6.074;2023-02-26T01:13:02;-0.70;99.90
17619;DHT22;8928;51.678;6.074;2023-02-26T01:15:52;-0.70;99.90
17619;DHT22;8928;51.678;6.074;2023-02-26T01:18:44;-0.60;99.90
17619;DHT22;8928;51.678;6.074;2023-02-26T01:21:35;-0.70;99.90
17619;DHT22;8928;51.678;6.074;2023-02-26T01:24:23;-0.70;99.90
17619;DHT22;8928;51.678;6.074;2023-02-26T01:27:12;-0.80;99.90
17619;DHT22;8928;51.678;6.074;2023-02-26T01:30:00;-0.90;99.90
17619;DHT22;8928;51.678;6.074;2023-02-26T01:32:50;-0.90;99.90
17619;DHT22;8928;51.678;6.074;2023-02-26T01:35:45;-1.00;99.90
17619;DHT22;8928;51.678;6.074;2023-02-26T01:38:38;-1.20;99.90
17619;DHT22;8928;51.678;6.074;2023-02-26T01:41:29;-1.20;99.90
17619;DHT22;8928;51.678;6.074;2023-02-26T01:44:22;-1.30;99.90
17619;DHT22;8928;51.678;6.074;2023-02-26T01:47:18;-1.30;99.90
17619;DHT22;8928;51.678;6.074;2023-02-26T01:50:14;-1.30;99.90
17619;DHT22;8928;51.678;6.074;2023-02-26T01:53:19;-1.30;99.90
17619;DHT22;8928;51.678;6.074;2023-02-26T01:56:10;-1.40;99.90
17619;DHT22;8928;51.678;6.074;2023-02-26T01:58:59;-1.40;99.90
17619;DHT22;8928;51.678;6.074;2023-02-26T02:01:52;-1.40;99.90
17619;DHT22;8928;51.678;6.074;2023-02-26T02:04:40;-1.40;99.90
17619;DHT22;8928;51.678;6.074;2023-02-26T02:07:29;-1.40;99.90
17619;DHT22;8928;51.678;6.074;2023-02-26T02:10:17;-1.40;99.90
17619;DHT22;8928;51.678;6.074;2023-02-26T02:13:11;-1.30;99.90
17619;DHT22;8928;51.678;6.074;2023-02-26T02:16:10;-1.30;99.90
17619;DHT22;8928;51.678;6.074;2023-02-26T02:19:13;-1.30;99.90
17619;DHT22;8928;51.678;6.074;2023-02-26T02:22:24;-1.40;99.90
17619;DHT22;8928;51.678;6.074;2023-02-26T02:25:38;-1.40;99.90
17619;DHT22;8928;51.678;6.074;2023-02-26T02:28:36;-1.40;99.90
17619;DHT22;8928;51.678;6.074;2023-02-26T02:31:30;-1.40;99.90
17619;DHT22;8928;51.678;6.074;2023-02-26T02:34:21;-1.40;99.90
17619;DHT22;8928;51.678;6.074;2023-02-26T02:37:15;-1.40;99.90
17619;DHT22;8928;51.678;6.074;2023-02-26T02:40:07;-1.40;99.90
17619;DHT22;8928;51.678;6.074;2023-02-26T02:42:59;-1.40;99.90
17619;DHT22;8928;51.678;6.074;2023-02-26T02:45:51;-1.40;99.90
17619;DHT22;8928;51.678;6.074;2023-02-26T02:48:44;-1.40;99.90
17619;DHT22;8928;51.678;6.074;2023-02-26T02:51:36;-1.40;99.90
17619;DHT22;8928;51.678;6.074;2023-02-26T02:54:26;-1.30;99.90
17619;DHT22;8928;51.678;6.074;2023-02-26T02:57:18;-1.40;99.90
17619;DHT22;8928;51.678;6.074;2023-02-26T03:00:10;-1.40;99.90
17619;DHT22;8928;51.678;6.074;2023-02-26T03:03:02;-1.30;99.90
17619;DHT22;8928;51.678;6.074;2023-02-26T03:05:52;-1.40;99.90
17619;DHT22;8928;51.678;6.074;2023-02-26T03:08:40;-1.40;99.90
17619;DHT22;8928;51.678;6.074;2023-02-26T03:11:28;-1.40;99.90
17619;DHT22;8928;51.678;6.074;2023-02-26T03:14:16;-1.40;99.90
17619;DHT22;8928;51.678;6.074;2023-02-26T03:17:16;-1.40;99.90
17619;DHT22;8928;51.678;6.074;2023-02-26T03:20:15;-1.40;99.90
17619;DHT22;8928;51.678;6.074;2023-02-26T03:23:15;-1.50;99.90
17619;DHT22;8928;51.678;6.074;2023-02-26T03:26:10;-1.60;99.90
17619;DHT22;8928;51.678;6.074;2023-02-26T03:29:02;-1.60;99.90
17619;DHT22;8928;51.678;6.074;2023-02-26T03:31:53;-1.70;99.90
17619;DHT22;8928;51.678;6.074;2023-02-26T03:34:46;-1.70;99.90
17619;DHT22;8928;51.678;6.074;2023-02-26T03:37:37;-1.70;99.90
17619;DHT22;8928;51.678;6.074;2023-02-26T03:40:30;-1.70;99.90
17619;DHT22;8928;51.678;6.074;2023-02-26T03:43:23;-1.80;99.90
17619;DHT22;8928;51.678;6.074;2023-02-26T03:46:15;-1.80;99.90
17619;DHT22;8928;51.678;6.074;2023-02-26T03:49:06;-1.90;99.90
17619;DHT22;8928;51.678;6.074;2023-02-26T03:51:55;-1.90;99.90
17619;DHT22;8928;51.678;6.074;2023-02-26T03:54:47;-1.90;99.90
17619;DHT22;8928;51.678;6.074;2023-02-26T03:57:37;-2.00;99.90
17619;DHT22;8928;51.678;6.074;2023-02-26T04:00:25;-2.00;99.90
17619;DHT22;8928;51.678;6.074;2023-02-26T04:03:17;-2.00;99.90
17619;DHT22;8928;51.678;6.074;2023-02-26T04:06:09;-2.10;99.90
17619;DHT22;8928;51.678;6.074;2023-02-26T04:08:57;-2.20;99.90
17619;DHT22;8928;51.678;6.074;2023-02-26T04:11:44;-2.20;99.90
17619;DHT22;8928;51.678;6.074;2023-02-26T04:14:33;-2.20;99.90
17619;DHT22;8928;51.678;6.074;2023-02-26T04:17:20;-2.20;99.90
17619;DHT22;8928;51.678;6.074;2023-02-26T04:20:08;-2.30;99.90
17619;DHT22;8928;51.678;6.074;2023-02-26T04:22:55;-2.30;99.90
17619;DHT22;8928;51.678;6.074;2023-02-26T04:25:42;-2.40;99.90
17619;DHT22;8928;51.678;6.074;2023-02-26T04:28:29;-2.40;99.90
17619;DHT22;8928;51.678;6.074;2023-02-26T04:31:18;-2.40;99.90
17619;DHT22;8928;51.678;6.074;2023-02-26T04:34:05;-2.50;99.90
17619;DHT22;8928;51.678;6.074;2023-02-26T04:36:52;-2.50;99.90
17619;DHT22;8928;51.678;6.074;2023-02-26T04:39:39;-2.50;99.90
17619;DHT22;8928;51.678;6.074;2023-02-26T04:42:26;-2.50;99.90
17619;DHT22;8928;51.678;6.074;2023-02-26T04:45:13;-2.50;99.90
17619;DHT22;8928;51.678;6.074;2023-02-26T04:48:01;-2.50;99.90
17619;DHT22;8928;51.678;6.074;2023-02-26T04:50:48;-2.40;99.90
17619;DHT22;8928;51.678;6.074;2023-02-26T04:53:35;-2.40;99.90
17619;DHT22;8928;51.678;6.074;2023-02-26T04:56:22;-2.40;99.90
17619;DHT22;8928;51.678;6.074;2023-02-26T04:59:09;-2.30;99.90
17619;DHT22;8928;51.678;6.074;2023-02-26T05:01:57;-2.30;99.90
17619;DHT22;8928;51.678;6.074;2023-02-26T05:04:45;-2.30;99.90
17619;DHT22;8928;51.678;6.074;2023-02-26T05:07:32;-2.30;99.90
17619;DHT22;8928;51.678;6.074;2023-02-26T05:10:19;-2.40;99.90
17619;DHT22;8928;51.678;6.074;2023-02-26T05:13:06;-2.30;99.90
17619;DHT22;8928;51.678;6.074;2023-02-26T05:15:53;-2.30;99.90
17619;DHT22;8928;51.678;6.074;2023-02-26T05:18:40;-2.30;99.90
17619;DHT22;8928;51.678;6.074;2023-02-26T05:21:29;-2.30;99.90
17619;DHT22;8928;51.678;6.074;2023-02-26T05:24:16;-2.30;99.90
17619;DHT22;8928;51.678;6.074;2023-02-26T05:27:03;-2.30;99.90
17619;DHT22;8928;51.678;6.074;2023-02-26T05:29:50;-2.30;99.90
17619;DHT22;8928;51.678;6.074;2023-02-26T05:32:37;-2.30;99.90
17619;DHT22;8928;51.678;6.074;2023-02-26T05:35:24;-2.30;99.90
17619;DHT22;8928;51.678;6.074;2023-02-26T05:38:12;-2.30;99.90
17619;DHT22;8928;51.678;6.074;2023-02-26T05:41:00;-2.30;99.90
17619;DHT22;8928;51.678;6.074;2023-02-26T05:43:47;-2.30;99.90
17619;DHT22;8928;51.678;6.074;2023-02-26T05:46:34;-2.30;99.90
17619;DHT22;8928;51.678;6.074;2023-02-26T05:49:21;-2.30;99.90
17619;DHT22;8928;51.678;6.074;2023-02-26T05:52:08;-2.30;99.90
17619;DHT22;8928;51.678;6.074;2023-02-26T05:54:56;-2.30;99.90
17619;DHT22;8928;51.678;6.074;2023-02-26T05:57:43;-2.30;99.90
17619;DHT22;8928;51.678;6.074;2023-02-26T06:00:30;-2.30;99.90
17619;DHT22;8928;51.678;6.074;2023-02-26T06:03:17;-2.30;99.90
17619;DHT22;8928;51.678;6.074;2023-02-26T06:06:05;-2.30;99.90
17619;DHT22;8928;51.678;6.074;2023-02-26T06:08:52;-2.30;99.90
17619;DHT22;8928;51.678;6.074;2023-02-26T06:11:40;-2.30;99.90
17619;DHT22;8928;51.678;6.074;2023-02-26T06:14:27;-2.30;99.90
17619;DHT22;8928;51.678;6.074;2023-02-26T06:17:14;-2.30;99.90
17619;DHT22;8928;51.678;6.074;2023-02-26T06:20:02;-2.30;99.90
17619;DHT22;8928;51.678;6.074;2023-02-26T06:22:49;-2.30;99.90
17619;DHT22;8928;51.678;6.074;2023-02-26T06:25:36;-2.30;99.90
17619;DHT22;8928;51.678;6.074;2023-02-26T06:28:25;-2.20;99.90
17619;DHT22;8928;51.678;6.074;2023-02-26T06:31:12;-2.20;99.90
17619;DHT22;8928;51.678;6.074;2023-02-26T06:33:59;-2.20;99.90
17619;DHT22;8928;51.678;6.074;2023-02-26T06:36:46;-2.20;99.90
17619;DHT22;8928;51.678;6.074;2023-02-26T06:39:33;-2.20;99.90
17619;DHT22;8928;51.678;6.074;2023-02-26T06:42:20;-2.00;99.90
17619;DHT22;8928;51.678;6.074;2023-02-26T06:45:10;-2.00;99.90
17619;DHT22;8928;51.678;6.074;2023-02-26T06:47:57;-2.00;99.90
17619;DHT22;8928;51.678;6.074;2023-02-26T06:50:44;-2.00;99.90
17619;DHT22;8928;51.678;6.074;2023-02-26T06:53:31;-2.00;99.90
17619;DHT22;8928;51.678;6.074;2023-02-26T06:56:18;-2.00;99.90
17619;DHT22;8928;51.678;6.074;2023-02-26T06:59:05;-1.90;99.90
17619;DHT22;8928;51.678;6.074;2023-02-26T07:01:53;-1.90;99.90
17619;DHT22;8928;51.678;6.074;2023-02-26T07:04:42;-1.90;99.90
17619;DHT22;8928;51.678;6.074;2023-02-26T07:07:29;-1.80;99.90
17619;DHT22;8928;51.678;6.074;2023-02-26T07:10:16;-1.80;99.90
17619;DHT22;8928;51.678;6.074;2023-02-26T07:13:03;-1.70;99.90
17619;DHT22;8928;51.678;6.074;2023-02-26T07:15:50;-1.70;99.90
17619;DHT22;8928;51.678;6.074;2023-02-26T07:18:39;-1.70;99.90
17619;DHT22;8928;51.678;6.074;2023-02-26T07:21:26;-1.70;99.90
17619;DHT22;8928;51.678;6.074;2023-02-26T07:24:13;-1.60;99.90
17619;DHT22;8928;51.678;6.074;2023-02-26T07:27:00;-1.60;99.90
17619;DHT22;8928;51.678;6.074;2023-02-26T07:29:47;-1.50;99.90
17619;DHT22;8928;51.678;6.074;2023-02-26T07:32:34;-1.40;99.90
17619;DHT22;8928;51.678;6.074;2023-02-26T07:35:23;-1.40;99.90
17619;DHT22;8928;51.678;6.074;2023-02-26T07:38:10;-1.30;99.90
17619;DHT22;8928;51.678;6.074;2023-02-26T07:40:57;-1.20;99.90
17619;DHT22;8928;51.678;6.074;2023-02-26T07:43:44;-1.20;99.90
17619;DHT22;8928;51.678;6.074;2023-02-26T07:46:31;-1.10;99.90
17619;DHT22;8928;51.678;6.074;2023-02-26T07:49:18;-1.00;99.90
17619;DHT22;8928;51.678;6.074;2023-02-26T07:52:07;-0.90;99.90
17619;DHT22;8928;51.678;6.074;2023-02-26T07:54:54;-0.80;99.90
17619;DHT22;8928;51.678;6.074;2023-02-26T07:57:41;-0.70;99.90
17619;DHT22;8928;51.678;6.074;2023-02-26T08:00:28;-0.60;99.90
17619;DHT22;8928;51.678;6.074;2023-02-26T08:03:15;-0.60;99.90
17619;DHT22;8928;51.678;6.074;2023-02-26T08:06:03;-0.50;99.90
17619;DHT22;8928;51.678;6.074;2023-02-26T08:08:51;-0.40;99.90
17619;DHT22;8928;51.678;6.074;2023-02-26T08:11:38;-0.30;99.90
17619;DHT22;8928;51.678;6.074;2023-02-26T08:14:27;-0.20;99.90
17619;DHT22;8928;51.678;6.074;2023-02-26T08:17:15;-0.10;99.90
17619;DHT22;8928;51.678;6.074;2023-02-26T08:20:02;0.00;99.90
17619;DHT22;8928;51.678;6.074;2023-02-26T08:22:50;0.10;99.90
17619;DHT22;8928;51.678;6.074;2023-02-26T08:25:39;0.20;99.90
17619;DHT22;8928;51.678;6.074;2023-02-26T08:28:26;0.30;99.90
17619;DHT22;8928;51.678;6.074;2023-02-26T08:31:13;0.40;99.90
17619;DHT22;8928;51.678;6.074;2023-02-26T08:34:00;0.50;99.90
17619;DHT22;8928;51.678;6.074;2023-02-26T08:36:47;0.60;99.90
17619;DHT22;8928;51.678;6.074;2023-02-26T08:39:35;0.70;99.90
17619;DHT22;8928;51.678;6.074;2023-02-26T08:42:25;0.80;99.90
17619;DHT22;8928;51.678;6.074;2023-02-26T08:45:12;0.90;99.90
17619;DHT22;8928;51.678;6.074;2023-02-26T08:47:59;1.00;99.90
17619;DHT22;8928;51.678;6.074;2023-02-26T08:50:46;1.10;99.90
17619;DHT22;8928;51.678;6.074;2023-02-26T08:53:33;1.20;99.90
17619;DHT22;8928;51.678;6.074;2023-02-26T08:56:20;1.40;99.90
17619;DHT22;8928;51.678;6.074;2023-02-26T08:59:09;1.50;99.90
17619;DHT22;8928;51.678;6.074;2023-02-26T09:01:57;1.60;99.90
17619;DHT22;8928;51.678;6.074;2023-02-26T09:04:44;1.70;99.90
17619;DHT22;8928;51.678;6.074;2023-02-26T09:07:32;1.90;99.90
17619;DHT22;8928;51.678;6.074;2023-02-26T09:10:19;2.00;99.90
17619;DHT22;8928;51.678;6.074;2023-02-26T09:13:06;2.10;99.90
17619;DHT22;8928;51.678;6.074;2023-02-26T09:15:54;2.10;99.90
17619;DHT22;8928;51.678;6.074;2023-02-26T09:18:41;2.20;99.90
17619;DHT22;8928;51.678;6.074;2023-02-26T09:21:28;2.20;99.90
17619;DHT22;8928;51.678;6.074;2023-02-26T09:24:15;2.40;99.90
17619;DHT22;8928;51.678;6.074;2023-02-26T09:27:02;2.50;99.90
17619;DHT22;8928;51.678;6.074;2023-02-26T09:29:49;2.80;99.90
17619;DHT22;8928;51.678;6.074;2023-02-26T09:32:38;2.90;99.90
17619;DHT22;8928;51.678;6.074;2023-02-26T09:35:25;3.00;99.90
17619;DHT22;8928;51.678;6.074;2023-02-26T09:38:12;3.20;99.90
17619;DHT22;8928;51.678;6.074;2023-02-26T09:41:02;3.30;99.90
17619;DHT22;8928;51.678;6.074;2023-02-26T09:44:07;3.40;99.90
17619;DHT22;8928;51.678;6.074;2023-02-26T09:47:00;3.50;99.90
17619;DHT22;8928;51.678;6.074;2023-02-26T09:49:53;3.60;99.90
17619;DHT22;8928;51.678;6.074;2023-02-26T09:52:46;3.60;99.90
17619;DHT22;8928;51.678;6.074;2023-02-26T09:55:38;3.80;99.90
17619;DHT22;8928;51.678;6.074;2023-02-26T09:58:30;3.90;99.90
17619;DHT22;8928;51.678;6.074;2023-02-26T10:01:22;4.10;99.90
17619;DHT22;8928;51.678;6.074;2023-02-26T10:04:18;4.30;99.90
17619;DHT22;8928;51.678;6.074;2023-02-26T10:07:18;4.50;99.90
17619;DHT22;8928;51.678;6.074;2023-02-26T10:10:16;4.50;99.90
17619;DHT22;8928;51.678;6.074;2023-02-26T10:13:07;4.50;99.90
17619;DHT22;8928;51.678;6.074;2023-02-26T10:16:04;4.50;99.90
17619;DHT22;8928;51.678;6.074;2023-02-26T10:18:55;4.60;99.90
17619;DHT22;8928;51.678;6.074;2023-02-26T10:21:49;4.80;99.90
17619;DHT22;8928;51.678;6.074;2023-02-26T10:24:43;5.00;99.90
17619;DHT22;8928;51.678;6.074;2023-02-26T10:27:39;5.20;99.90
17619;DHT22;8928;51.678;6.074;2023-02-26T10:30:33;5.40;99.90
17619;DHT22;8928;51.678;6.074;2023-02-26T10:33:26;5.50;99.90
17619;DHT22;8928;51.678;6.074;2023-02-26T10:36:27;5.70;99.90
17619;DHT22;8928;51.678;6.074;2023-02-26T10:39:22;5.70;99.90
17619;DHT22;8928;51.678;6.074;2023-02-26T10:42:14;5.80;99.90
17619;DHT22;8928;51.678;6.074;2023-02-26T10:45:12;6.00;99.90
17619;DHT22;8928;51.678;6.074;2023-02-26T10:48:17;6.20;99.90
17619;DHT22;8928;51.678;6.074;2023-02-26T10:51:11;6.40;99.90
17619;DHT22;8928;51.678;6.074;2023-02-26T10:54:02;6.40;99.90
17619;DHT22;8928;51.678;6.074;2023-02-26T10:56:50;6.20;99.90
17619;DHT22;8928;51.678;6.074;2023-02-26T10:59:39;6.10;99.90
17619;DHT22;8928;51.678;6.074;2023-02-26T11:02:33;6.30;99.90
17619;DHT22;8928;51.678;6.074;2023-02-26T11:05:23;6.60;99.90
17619;DHT22;8928;51.678;6.074;2023-02-26T11:08:14;6.90;99.90
17619;DHT22;8928;51.678;6.074;2023-02-26T11:11:04;7.00;99.90
17619;DHT22;8928;51.678;6.074;2023-02-26T11:13:51;7.30;99.90
17619;DHT22;8928;51.678;6.074;2023-02-26T11:16:46;7.70;99.90
17619;DHT22;8928;51.678;6.074;2023-02-26T11:19:36;7.60;99.90
17619;DHT22;8928;51.678;6.074;2023-02-26T11:22:26;7.10;99.90
17619;DHT22;8928;51.678;6.074;2023-02-26T11:25:18;6.80;99.90
17619;DHT22;8928;51.678;6.074;2023-02-26T11:28:29;6.60;99.90
17619;DHT22;8928;51.678;6.074;2023-02-26T11:31:18;7.10;99.90
17619;DHT22;8928;51.678;6.074;2023-02-26T11:34:10;7.00;99.90
17619;DHT22;8928;51.678;6.074;2023-02-26T11:36:59;6.90;99.90
17619;DHT22;8928;51.678;6.074;2023-02-26T11:39:47;7.20;99.90
17619;DHT22;8928;51.678;6.074;2023-02-26T11:42:37;7.70;99.90
17619;DHT22;8928;51.678;6.074;2023-02-26T11:45:26;8.20;99.90
17619;DHT22;8928;51.678;6.074;2023-02-26T11:48:17;8.20;99.90
17619;DHT22;8928;51.678;6.074;2023-02-26T11:51:11;8.30;99.90
17619;DHT22;8928;51.678;6.074;2023-02-26T11:54:01;8.40;99.90
17619;DHT22;8928;51.678;6.074;2023-02-26T11:56:48;8.80;99.90
17619;DHT22;8928;51.678;6.074;2023-02-26T11:59:39;9.30;99.90
17619;DHT22;8928;51.678;6.074;2023-02-26T12:02:31;9.50;99.90
17619;DHT22;8928;51.678;6.074;2023-02-26T12:05:20;9.50;99.90
17619;DHT22;8928;51.678;6.074;2023-02-26T12:08:16;9.40;99.90
17619;DHT22;8928;51.678;6.074;2023-02-26T12:11:13;9.40;99.90
17619;DHT22;8928;51.678;6.074;2023-02-26T12:14:23;9.60;99.90
17619;DHT22;8928;51.678;6.074;2023-02-26T12:17:24;9.80;99.90
17619;DHT22;8928;51.678;6.074;2023-02-26T12:20:20;9.90;99.90
17619;DHT22;8928;51.678;6.074;2023-02-26T12:23:25;9.80;99.90
17619;DHT22;8928;51.678;6.074;2023-02-26T12:26:23;9.90;99.90
17619;DHT22;8928;51.678;6.074;2023-02-26T12:29:38;10.20;99.90
17619;DHT22;8928;51.678;6.074;2023-02-26T12:32:39;10.10;97.10
17619;DHT22;8928;51.678;6.074;2023-02-26T12:35:41;10.10;97.10
17619;DHT22;8928;51.678;6.074;2023-02-26T12:38:36;10.20;96.70
17619;DHT22;8928;51.678;6.074;2023-02-26T12:41:43;9.90;94.10
17619;DHT22;8928;51.678;6.074;2023-02-26T12:44:58;10.00;94.00
17619;DHT22;8928;51.678;6.074;2023-02-26T12:51:20;10.20;92.60
17619;DHT22;8928;51.678;6.074;2023-02-26T12:54:26;10.30;92.80
17619;DHT22;8928;51.678;6.074;2023-02-26T13:00:45;10.60;91.10
17619;DHT22;8928;51.678;6.074;2023-02-26T13:03:46;10.60;90.90
17619;DHT22;8928;51.678;6.074;2023-02-26T13:10:03;10.70;90.20
17619;DHT22;8928;51.678;6.074;2023-02-26T13:12:59;11.10;90.40
17619;DHT22;8928;51.678;6.074;2023-02-26T13:15:56;11.40;89.10
17619;DHT22;8928;51.678;6.074;2023-02-26T13:18:50;11.60;86.40
17619;DHT22;8928;51.678;6.074;2023-02-26T13:21:43;11.60;86.50
17619;DHT22;8928;51.678;6.074;2023-02-26T13:24:35;11.70;84.30
17619;DHT22;8928;51.678;6.074;2023-02-26T13:27:30;11.70;83.40
17619;DHT22;8928;51.678;6.074;2023-02-26T13:30:22;12.00;85.10
17619;DHT22;8928;51.678;6.074;2023-02-26T13:33:15;11.70;78.20
17619;DHT22;8928;51.678;6.074;2023-02-26T13:36:04;11.50;77.90
17619;DHT22;8928;51.678;6.074;2023-02-26T13:39:05;11.70;79.40
17619;DHT22;8928;51.678;6.074;2023-02-26T13:42:01;11.90;75.80
17619;DHT22;8928;51.678;6.074;2023-02-26T13:44:59;11.90;76.90
17619;DHT22;8928;51.678;6.074;2023-02-26T13:47:57;12.30;78.20
17619;DHT22;8928;51.678;6.074;2023-02-26T13:50:55;12.30;73.40
17619;DHT22;8928;51.678;6.074;2023-02-26T13:53:52;12.50;70.70
17619;DHT22;8928;51.678;6.074;2023-02-26T13:56:47;12.50;70.80
17619;DHT22;8928;51.678;6.074;2023-02-26T13:59:44;12.90;71.20
17619;DHT22;8928;51.678;6.074;2023-02-26T14:02:52;13.20;70.20
17619;DHT22;8928;51.678;6.074;2023-02-26T14:06:07;13.60;71.20
17619;DHT22;8928;51.678;6.074;2023-02-26T14:08:55;13.90;67.80
17619;DHT22;8928;51.678;6.074;2023-02-26T14:11:46;14.00;68.50
17619;DHT22;8928;51.678;6.074;2023-02-26T14:14:43;14.00;66.60
17619;DHT22;8928;51.678;6.074;2023-02-26T14:17:38;14.30;64.00
17619;DHT22;8928;51.678;6.074;2023-02-26T14:20:27;14.30;65.10
17619;DHT22;8928;51.678;6.074;2023-02-26T14:23:34;14.60;63.80
17619;DHT22;8928;51.678;6.074;2023-02-26T14:26:22;15.20;61.50
17619;DHT22;8928;51.678;6.074;2023-02-26T14:29:16;15.20;59.50
17619;DHT22;8928;51.678;6.074;2023-02-26T14:32:14;14.80;58.50
17619;DHT22;8928;51.678;6.074;2023-02-26T14:35:05;14.70;56.40
17619;DHT22;8928;51.678;6.074;2023-02-26T14:37:59;14.70;57.10
17619;DHT22;8928;51.678;6.074;2023-02-26T14:40:49;15.00;57.00
17619;DHT22;8928;51.678;6.074;2023-02-26T14:43:39;15.00;57.30
17619;DHT22;8928;51.678;6.074;2023-02-26T14:46:27;15.60;55.20
17619;DHT22;8928;51.678;6.074;2023-02-26T14:49:20;15.70;54.30
17619;DHT22;8928;51.678;6.074;2023-02-26T14:52:30;15.80;55.00
17619;DHT22;8928;51.678;6.074;2023-02-26T14:55:44;16.40;56.50
17619;DHT22;8928;51.678;6.074;2023-02-26T14:58:48;16.20;53.70
17619;DHT22;8928;51.678;6.074;2023-02-26T15:01:46;14.90;51.90
17619;DHT22;8928;51.678;6.074;2023-02-26T15:05:11;14.70;52.60
17619;DHT22;8928;51.678;6.074;2023-02-26T15:08:17;14.60;53.40
17619;DHT22;8928;51.678;6.074;2023-02-26T15:11:28;14.60;52.80
17619;DHT22;8928;51.678;6.074;2023-02-26T15:14:38;14.30;53.30
17619;DHT22;8928;51.678;6.074;2023-02-26T15:17:36;14.10;53.00
17619;DHT22;8928;51.678;6.074;2023-02-26T15:20:33;14.20;52.50
17619;DHT22;8928;51.678;6.074;2023-02-26T15:23:31;14.00;53.80
17619;DHT22;8928;51.678;6.074;2023-02-26T15:26:25;14.00;55.10
17619;DHT22;8928;51.678;6.074;2023-02-26T15:29:13;13.90;52.90
17619;DHT22;8928;51.678;6.074;2023-02-26T15:32:11;13.70;54.40
17619;DHT22;8928;51.678;6.074;2023-02-26T15:35:02;13.70;53.90
17619;DHT22;8928;51.678;6.074;2023-02-26T15:37:52;13.70;53.00
17619;DHT22;8928;51.678;6.074;2023-02-26T15:40:39;13.30;52.80
17619;DHT22;8928;51.678;6.074;2023-02-26T15:43:28;12.70;52.30
17619;DHT22;8928;51.678;6.074;2023-02-26T15:46:15;12.30;53.80
17619;DHT22;8928;51.678;6.074;2023-02-26T15:49:06;12.20;55.20
17619;DHT22;8928;51.678;6.074;2023-02-26T15:51:55;11.80;55.50
17619;DHT22;8928;51.678;6.074;2023-02-26T15:54:45;11.30;54.30
17619;DHT22;8928;51.678;6.074;2023-02-26T15:57:33;10.30;54.20
17619;DHT22;8928;51.678;6.074;2023-02-26T16:00:23;9.30;56.10
17619;DHT22;8928;51.678;6.074;2023-02-26T16:03:10;8.60;57.70
17619;DHT22;8928;51.678;6.074;2023-02-26T16:05:57;8.10;58.40
17619;DHT22;8928;51.678;6.074;2023-02-26T16:08:44;7.60;59.20
17619;DHT22;8928;51.678;6.074;2023-02-26T16:11:34;7.60;61.10
17619;DHT22;8928;51.678;6.074;2023-02-26T16:14:26;7.70;62.60
17619;DHT22;8928;51.678;6.074;2023-02-26T16:17:22;7.80;63.30
17619;DHT22;8928;51.678;6.074;2023-02-26T16:20:14;7.70;63.00
17619;DHT22;8928;51.678;6.074;2023-02-26T16:23:04;7.40;65.40
17619;DHT22;8928;51.678;6.074;2023-02-26T16:25:54;7.10;66.20
17619;DHT22;8928;51.678;6.074;2023-02-26T16:28:43;6.70;68.00
17619;DHT22;8928;51.678;6.074;2023-02-26T16:31:32;6.50;68.80
17619;DHT22;8928;51.678;6.074;2023-02-26T16:34:28;6.20;70.30
17619;DHT22;8928;51.678;6.074;2023-02-26T16:37:22;6.00;72.50
17619;DHT22;8928;51.678;6.074;2023-02-26T16:40:17;5.80;73.30
17619;DHT22;8928;51.678;6.074;2023-02-26T16:43:28;5.60;74.20
17619;DHT22;8928;51.678;6.074;2023-02-26T16:46:20;5.50;76.40
17619;DHT22;8928;51.678;6.074;2023-02-26T16:49:16;5.30;77.90
17619;DHT22;8928;51.678;6.074;2023-02-26T16:52:07;5.10;79.60
17619;DHT22;8928;51.678;6.074;2023-02-26T16:54:57;4.90;82.70
17619;DHT22;8928;51.678;6.074;2023-02-26T16:57:46;4.70;86.80
17619;DHT22;8928;51.678;6.074;2023-02-26T17:00:34;4.60;89.00
17619;DHT22;8928;51.678;6.074;2023-02-26T17:03:24;4.40;93.10
17619;DHT22;8928;51.678;6.074;2023-02-26T17:06:14;4.20;97.90
17619;DHT22;8928;51.678;6.074;2023-02-26T17:09:06;4.10;99.90
17619;DHT22;8928;51.678;6.074;2023-02-26T17:12:09;3.90;99.90
17619;DHT22;8928;51.678;6.074;2023-02-26T17:15:00;3.80;99.90
17619;DHT22;8928;51.678;6.074;2023-02-26T17:17:47;3.60;99.90
17619;DHT22;8928;51.678;6.074;2023-02-26T17:20:35;3.60;99.90
17619;DHT22;8928;51.678;6.074;2023-02-26T17:23:27;3.40;99.90
17619;DHT22;8928;51.678;6.074;2023-02-26T17:26:16;3.30;99.90
17619;DHT22;8928;51.678;6.074;2023-02-26T17:29:03;3.20;99.90
17619;DHT22;8928;51.678;6.074;2023-02-26T17:31:50;3.10;99.90
17619;DHT22;8928;51.678;6.074;2023-02-26T17:34:37;3.00;99.90
17619;DHT22;8928;51.678;6.074;2023-02-26T17:37:29;2.90;99.90
17619;DHT22;8928;51.678;6.074;2023-02-26T17:40:19;2.80;99.90
17619;DHT22;8928;51.678;6.074;2023-02-26T17:43:08;2.70;99.90
17619;DHT22;8928;51.678;6.074;2023-02-26T17:45:55;2.60;99.90
17619;DHT22;8928;51.678;6.074;2023-02-26T17:48:42;2.50;99.90
17619;DHT22;8928;51.678;6.074;2023-02-26T17:51:29;2.40;99.90
17619;DHT22;8928;51.678;6.074;2023-02-26T17:54:16;2.40;99.90
17619;DHT22;8928;51.678;6.074;2023-02-26T17:57:04;2.30;99.90
17619;DHT22;8928;51.678;6.074;2023-02-26T17:59:53;2.20;99.90
17619;DHT22;8928;51.678;6.074;2023-02-26T18:02:40;2.20;99.90
17619;DHT22;8928;51.678;6.074;2023-02-26T18:05:27;2.10;99.90
17619;DHT22;8928;51.678;6.074;2023-02-26T18:08:20;2.00;99.90
17619;DHT22;8928;51.678;6.074;2023-02-26T18:11:10;1.90;99.90
17619;DHT22;8928;51.678;6.074;2023-02-26T18:13:58;1.80;99.90
17619;DHT22;8928;51.678;6.074;2023-02-26T18:16:47;1.70;99.90
17619;DHT22;8928;51.678;6.074;2023-02-26T18:19:34;1.70;99.90
17619;DHT22;8928;51.678;6.074;2023-02-26T18:22:22;1.70;99.90
17619;DHT22;8928;51.678;6.074;2023-02-26T18:25:11;1.60;99.90
17619;DHT22;8928;51.678;6.074;2023-02-26T18:27:58;1.60;99.90
17619;DHT22;8928;51.678;6.074;2023-02-26T18:30:45;1.60;99.90
17619;DHT22;8928;51.678;6.074;2023-02-26T18:33:34;1.60;99.90
17619;DHT22;8928;51.678;6.074;2023-02-26T18:36:24;1.60;99.90
17619;DHT22;8928;51.678;6.074;2023-02-26T18:39:18;1.60;99.90